sensor_id;sensor_type;location;lat;lon;timestamp;P1;durP1;ratioP1;P2;durP2;ratioP2
47523;SDS011;33253;42.144;25.884;2023-02-21T00:00:01;9.80;;;6.05;;
47523;SDS011;33253;42.144;25.884;2023-02-21T00:02:45;11.02;;;6.43;;
47523;SDS011;33253;42.144;25.884;2023-02-21T00:05:29;9.73;;;5.90;;
47523;SDS011;33253;42.144;25.884;2023-02-21T00:08:13;12.82;;;8.10;;
47523;SDS011;33253;42.144;25.884;2023-02-21T00:10:57;18.13;;;8.77;;
47523;SDS011;33253;42.144;25.884;2023-02-21T00:13:41;12.80;;;8.60;;
47523;SDS011;33253;42.144;25.884;2023-02-21T00:16:24;14.77;;;9.68;;
47523;SDS011;33253;42.144;25.884;2023-02-21T00:19:08;16.35;;;11.13;;
47523;SDS011;33253;42.144;25.884;2023-02-21T00:21:53;19.38;;;11.63;;
47523;SDS011;33253;42.144;25.884;2023-02-21T00:24:37;18.10;;;10.63;;
47523;SDS011;33253;42.144;25.884;2023-02-21T00:27:22;14.70;;;10.60;;
47523;SDS011;33253;42.144;25.884;2023-02-21T00:30:07;15.80;;;10.10;;
47523;SDS011;33253;42.144;25.884;2023-02-21T00:32:52;16.85;;;10.35;;
47523;SDS011;33253;42.144;25.884;2023-02-21T00:35:36;14.45;;;9.27;;
47523;SDS011;33253;42.144;25.884;2023-02-21T00:38:20;17.83;;;11.15;;
47523;SDS011;33253;42.144;25.884;2023-02-21T00:41:04;19.50;;;10.73;;
47523;SDS011;33253;42.144;25.884;2023-02-21T00:43:48;16.75;;;11.10;;
47523;SDS011;33253;42.144;25.884;2023-02-21T00:46:31;17.02;;;10.43;;
47523;SDS011;33253;42.144;25.884;2023-02-21T00:49:16;18.33;;;10.80;;
47523;SDS011;33253;42.144;25.884;2023-02-21T00:51:59;15.68;;;9.90;;
47523;SDS011;33253;42.144;25.884;2023-02-21T00:54:44;16.33;;;10.27;;
47523;SDS011;33253;42.144;25.884;2023-02-21T00:57:27;18.13;;;10.60;;
47523;SDS011;33253;42.144;25.884;2023-02-21T01:00:16;16.92;;;10.60;;
47523;SDS011;33253;42.144;25.884;2023-02-21T01:03:02;13.05;;;8.90;;
47523;SDS011;33253;42.144;25.884;2023-02-21T01:05:46;12.52;;;7.53;;
47523;SDS011;33253;42.144;25.884;2023-02-21T01:08:30;14.00;;;8.82;;
47523;SDS011;33253;42.144;25.884;2023-02-21T01:11:15;13.88;;;9.10;;
47523;SDS011;33253;42.144;25.884;2023-02-21T01:14:03;13.77;;;8.98;;
47523;SDS011;33253;42.144;25.884;2023-02-21T01:16:47;16.27;;;9.60;;
47523;SDS011;33253;42.144;25.884;2023-02-21T01:19:31;17.23;;;10.07;;
47523;SDS011;33253;42.144;25.884;2023-02-21T01:22:15;17.08;;;10.73;;
47523;SDS011;33253;42.144;25.884;2023-02-21T01:24:59;19.23;;;11.48;;
47523;SDS011;33253;42.144;25.884;2023-02-21T01:27:43;23.10;;;12.60;;
47523;SDS011;33253;42.144;25.884;2023-02-21T01:30:27;17.65;;;11.50;;
47523;SDS011;33253;42.144;25.884;2023-02-21T01:33:11;15.18;;;10.07;;
47523;SDS011;33253;42.144;25.884;2023-02-21T01:35:55;19.42;;;11.32;;
47523;SDS011;33253;42.144;25.884;2023-02-21T01:38:39;19.67;;;10.65;;
47523;SDS011;33253;42.144;25.884;2023-02-21T01:41:23;17.27;;;10.70;;
47523;SDS011;33253;42.144;25.884;2023-02-21T01:44:28;17.23;;;10.85;;
47523;SDS011;33253;42.144;25.884;2023-02-21T01:47:12;20.48;;;11.93;;
47523;SDS011;33253;42.144;25.884;2023-02-21T01:49:56;21.63;;;12.50;;
47523;SDS011;33253;42.144;25.884;2023-02-21T01:52:42;18.08;;;12.63;;
47523;SDS011;33253;42.144;25.884;2023-02-21T01:55:27;18.73;;;13.17;;
47523;SDS011;33253;42.144;25.884;2023-02-21T01:58:11;23.27;;;13.00;;
47523;SDS011;33253;42.144;25.884;2023-02-21T02:00:55;19.27;;;12.65;;
47523;SDS011;33253;42.144;25.884;2023-02-21T02:03:39;18.90;;;13.50;;
47523;SDS011;33253;42.144;25.884;2023-02-21T02:06:23;22.47;;;13.10;;
47523;SDS011;33253;42.144;25.884;2023-02-21T02:12:37;24.77;;;15.17;;
47523;SDS011;33253;42.144;25.884;2023-02-21T02:17:55;21.33;;;12.80;;
47523;SDS011;33253;42.144;25.884;2023-02-21T02:20:31;23.10;;;14.18;;
47523;SDS011;33253;42.144;25.884;2023-02-21T02:37:22;18.87;;;11.77;;
47523;SDS011;33253;42.144;25.884;2023-02-21T02:45:43;20.47;;;12.07;;
47523;SDS011;33253;42.144;25.884;2023-02-21T02:48:14;19.40;;;11.75;;
47523;SDS011;33253;42.144;25.884;2023-02-21T02:50:46;16.87;;;11.17;;
47523;SDS011;33253;42.144;25.884;2023-02-21T02:53:15;19.57;;;11.77;;
47523;SDS011;33253;42.144;25.884;2023-02-21T02:55:46;19.60;;;11.07;;
47523;SDS011;33253;42.144;25.884;2023-02-21T02:58:17;19.33;;;11.33;;
47523;SDS011;33253;42.144;25.884;2023-02-21T03:00:54;18.40;;;11.27;;
47523;SDS011;33253;42.144;25.884;2023-02-21T03:08:39;18.65;;;11.20;;
47523;SDS011;33253;42.144;25.884;2023-02-21T03:11:16;22.08;;;11.60;;
47523;SDS011;33253;42.144;25.884;2023-02-21T03:16:21;18.33;;;11.07;;
47523;SDS011;33253;42.144;25.884;2023-02-21T03:19:17;20.50;;;12.10;;
47523;SDS011;33253;42.144;25.884;2023-02-21T03:21:54;17.20;;;11.40;;
47523;SDS011;33253;42.144;25.884;2023-02-21T03:24:26;19.52;;;12.43;;
47523;SDS011;33253;42.144;25.884;2023-02-21T03:26:58;23.70;;;13.00;;
47523;SDS011;33253;42.144;25.884;2023-02-21T03:29:29;18.33;;;12.07;;
47523;SDS011;33253;42.144;25.884;2023-02-21T03:32:05;18.80;;;11.60;;
47523;SDS011;33253;42.144;25.884;2023-02-21T03:34:35;23.13;;;12.93;;
47523;SDS011;33253;42.144;25.884;2023-02-21T03:37:05;20.50;;;12.47;;
47523;SDS011;33253;42.144;25.884;2023-02-21T03:39:32;20.20;;;12.10;;
47523;SDS011;33253;42.144;25.884;2023-02-21T03:41:57;22.80;;;13.33;;
47523;SDS011;33253;42.144;25.884;2023-02-21T03:44:23;22.73;;;13.23;;
47523;SDS011;33253;42.144;25.884;2023-02-21T03:46:48;23.60;;;13.33;;
47523;SDS011;33253;42.144;25.884;2023-02-21T03:49:14;21.93;;;13.13;;
47523;SDS011;33253;42.144;25.884;2023-02-21T03:51:40;21.10;;;13.67;;
47523;SDS011;33253;42.144;25.884;2023-02-21T03:54:05;22.33;;;13.23;;
47523;SDS011;33253;42.144;25.884;2023-02-21T03:56:31;24.67;;;14.07;;
47523;SDS011;33253;42.144;25.884;2023-02-21T03:58:56;20.47;;;14.17;;
47523;SDS011;33253;42.144;25.884;2023-02-21T04:01:22;27.27;;;15.40;;
47523;SDS011;33253;42.144;25.884;2023-02-21T04:03:47;22.00;;;13.50;;
47523;SDS011;33253;42.144;25.884;2023-02-21T04:06:13;25.20;;;14.73;;
47523;SDS011;33253;42.144;25.884;2023-02-21T04:08:38;20.73;;;13.33;;
47523;SDS011;33253;42.144;25.884;2023-02-21T04:11:04;20.40;;;14.27;;
47523;SDS011;33253;42.144;25.884;2023-02-21T04:13:29;20.07;;;13.47;;
47523;SDS011;33253;42.144;25.884;2023-02-21T04:15:55;26.17;;;14.67;;
47523;SDS011;33253;42.144;25.884;2023-02-21T04:18:20;22.23;;;13.43;;
47523;SDS011;33253;42.144;25.884;2023-02-21T04:20:46;25.03;;;14.33;;
47523;SDS011;33253;42.144;25.884;2023-02-21T04:23:15;23.40;;;13.57;;
47523;SDS011;33253;42.144;25.884;2023-02-21T04:25:44;25.27;;;15.03;;
47523;SDS011;33253;42.144;25.884;2023-02-21T04:28:10;23.03;;;13.03;;
47523;SDS011;33253;42.144;25.884;2023-02-21T04:30:35;20.03;;;12.97;;
47523;SDS011;33253;42.144;25.884;2023-02-21T04:33:01;24.07;;;15.60;;
47523;SDS011;33253;42.144;25.884;2023-02-21T04:35:27;28.93;;;16.43;;
47523;SDS011;33253;42.144;25.884;2023-02-21T04:37:53;27.27;;;15.40;;
47523;SDS011;33253;42.144;25.884;2023-02-21T04:40:19;25.87;;;15.90;;
47523;SDS011;33253;42.144;25.884;2023-02-21T04:42:45;27.07;;;16.50;;
47523;SDS011;33253;42.144;25.884;2023-02-21T04:45:11;28.40;;;16.17;;
47523;SDS011;33253;42.144;25.884;2023-02-21T04:47:36;22.33;;;14.90;;
47523;SDS011;33253;42.144;25.884;2023-02-21T04:50:02;26.27;;;16.17;;
47523;SDS011;33253;42.144;25.884;2023-02-21T04:52:28;27.33;;;16.03;;
47523;SDS011;33253;42.144;25.884;2023-02-21T04:54:54;25.07;;;14.70;;
47523;SDS011;33253;42.144;25.884;2023-02-21T04:57:19;32.73;;;16.77;;
47523;SDS011;33253;42.144;25.884;2023-02-21T04:59:45;30.23;;;18.17;;
47523;SDS011;33253;42.144;25.884;2023-02-21T05:02:10;26.13;;;15.97;;
47523;SDS011;33253;42.144;25.884;2023-02-21T05:04:36;26.03;;;15.10;;
47523;SDS011;33253;42.144;25.884;2023-02-21T05:07:01;26.60;;;16.17;;
47523;SDS011;33253;42.144;25.884;2023-02-21T05:09:27;27.03;;;14.47;;
47523;SDS011;33253;42.144;25.884;2023-02-21T05:11:53;22.90;;;14.30;;
47523;SDS011;33253;42.144;25.884;2023-02-21T05:14:18;23.13;;;14.13;;
47523;SDS011;33253;42.144;25.884;2023-02-21T05:16:44;24.90;;;14.30;;
47523;SDS011;33253;42.144;25.884;2023-02-21T05:19:10;23.53;;;14.53;;
47523;SDS011;33253;42.144;25.884;2023-02-21T05:21:36;25.33;;;15.97;;
47523;SDS011;33253;42.144;25.884;2023-02-21T05:24:04;30.83;;;17.23;;
47523;SDS011;33253;42.144;25.884;2023-02-21T05:26:35;30.60;;;16.33;;
47523;SDS011;33253;42.144;25.884;2023-02-21T05:29:02;26.27;;;16.63;;
47523;SDS011;33253;42.144;25.884;2023-02-21T05:31:29;30.53;;;16.50;;
47523;SDS011;33253;42.144;25.884;2023-02-21T05:33:55;26.70;;;15.27;;
47523;SDS011;33253;42.144;25.884;2023-02-21T05:36:21;26.43;;;15.97;;
47523;SDS011;33253;42.144;25.884;2023-02-21T05:38:50;24.80;;;15.57;;
47523;SDS011;33253;42.144;25.884;2023-02-21T05:41:17;23.50;;;15.17;;
47523;SDS011;33253;42.144;25.884;2023-02-21T05:43:43;25.20;;;15.67;;
47523;SDS011;33253;42.144;25.884;2023-02-21T05:46:23;25.37;;;15.83;;
47523;SDS011;33253;42.144;25.884;2023-02-21T05:48:51;26.93;;;15.47;;
47523;SDS011;33253;42.144;25.884;2023-02-21T05:51:18;26.23;;;15.23;;
47523;SDS011;33253;42.144;25.884;2023-02-21T05:53:44;24.93;;;15.73;;
47523;SDS011;33253;42.144;25.884;2023-02-21T05:56:10;30.10;;;15.93;;
47523;SDS011;33253;42.144;25.884;2023-02-21T05:58:36;27.20;;;16.80;;
47523;SDS011;33253;42.144;25.884;2023-02-21T06:01:02;25.20;;;15.43;;
47523;SDS011;33253;42.144;25.884;2023-02-21T06:03:30;25.50;;;16.13;;
47523;SDS011;33253;42.144;25.884;2023-02-21T06:05:55;28.57;;;16.30;;
47523;SDS011;33253;42.144;25.884;2023-02-21T06:08:21;24.87;;;15.50;;
47523;SDS011;33253;42.144;25.884;2023-02-21T06:10:48;26.80;;;17.00;;
47523;SDS011;33253;42.144;25.884;2023-02-21T06:13:15;24.40;;;15.00;;
47523;SDS011;33253;42.144;25.884;2023-02-21T06:15:40;24.07;;;15.50;;
47523;SDS011;33253;42.144;25.884;2023-02-21T06:18:06;26.47;;;15.50;;
47523;SDS011;33253;42.144;25.884;2023-02-21T06:20:31;26.97;;;16.20;;
47523;SDS011;33253;42.144;25.884;2023-02-21T06:22:57;28.07;;;17.07;;
47523;SDS011;33253;42.144;25.884;2023-02-21T06:25:23;27.73;;;17.07;;
47523;SDS011;33253;42.144;25.884;2023-02-21T06:27:48;31.33;;;16.73;;
47523;SDS011;33253;42.144;25.884;2023-02-21T06:30:13;26.47;;;16.67;;
47523;SDS011;33253;42.144;25.884;2023-02-21T06:32:40;28.37;;;16.40;;
47523;SDS011;33253;42.144;25.884;2023-02-21T06:35:06;28.93;;;16.97;;
47523;SDS011;33253;42.144;25.884;2023-02-21T06:37:32;27.27;;;16.23;;
47523;SDS011;33253;42.144;25.884;2023-02-21T06:39:57;27.57;;;16.10;;
47523;SDS011;33253;42.144;25.884;2023-02-21T06:42:23;24.38;;;15.98;;
47523;SDS011;33253;42.144;25.884;2023-02-21T06:44:48;24.10;;;15.90;;
47523;SDS011;33253;42.144;25.884;2023-02-21T06:47:14;22.48;;;14.75;;
47523;SDS011;33253;42.144;25.884;2023-02-21T06:49:40;22.95;;;13.95;;
47523;SDS011;33253;42.144;25.884;2023-02-21T06:52:06;21.50;;;14.75;;
47523;SDS011;33253;42.144;25.884;2023-02-21T06:54:33;24.33;;;14.40;;
47523;SDS011;33253;42.144;25.884;2023-02-21T06:56:59;23.33;;;14.60;;
47523;SDS011;33253;42.144;25.884;2023-02-21T06:59:26;25.95;;;14.63;;
47523;SDS011;33253;42.144;25.884;2023-02-21T07:01:52;32.42;;;16.02;;
47523;SDS011;33253;42.144;25.884;2023-02-21T07:04:18;20.42;;;13.02;;
47523;SDS011;33253;42.144;25.884;2023-02-21T07:06:44;21.58;;;13.32;;
47523;SDS011;33253;42.144;25.884;2023-02-21T07:09:10;19.58;;;12.13;;
47523;SDS011;33253;42.144;25.884;2023-02-21T07:11:35;19.45;;;11.75;;
47523;SDS011;33253;42.144;25.884;2023-02-21T07:14:01;19.60;;;12.20;;
47523;SDS011;33253;42.144;25.884;2023-02-21T07:16:26;14.70;;;10.25;;
47523;SDS011;33253;42.144;25.884;2023-02-21T07:18:52;17.08;;;9.82;;
47523;SDS011;33253;42.144;25.884;2023-02-21T07:21:18;18.88;;;10.35;;
47523;SDS011;33253;42.144;25.884;2023-02-21T07:23:45;17.05;;;10.02;;
47523;SDS011;33253;42.144;25.884;2023-02-21T07:26:12;14.80;;;9.43;;
47523;SDS011;33253;42.144;25.884;2023-02-21T07:28:38;16.42;;;10.30;;
47523;SDS011;33253;42.144;25.884;2023-02-21T07:31:04;17.63;;;11.45;;
47523;SDS011;33253;42.144;25.884;2023-02-21T07:33:29;16.48;;;10.57;;
47523;SDS011;33253;42.144;25.884;2023-02-21T07:35:55;16.73;;;10.73;;
47523;SDS011;33253;42.144;25.884;2023-02-21T07:38:27;17.48;;;11.10;;
47523;SDS011;33253;42.144;25.884;2023-02-21T07:40:54;16.65;;;10.00;;
47523;SDS011;33253;42.144;25.884;2023-02-21T07:43:24;15.93;;;10.07;;
47523;SDS011;33253;42.144;25.884;2023-02-21T07:45:50;20.95;;;11.13;;
47523;SDS011;33253;42.144;25.884;2023-02-21T07:48:16;15.18;;;9.60;;
47523;SDS011;33253;42.144;25.884;2023-02-21T07:50:42;16.90;;;10.82;;
47523;SDS011;33253;42.144;25.884;2023-02-21T07:53:08;13.50;;;9.23;;
47523;SDS011;33253;42.144;25.884;2023-02-21T07:55:34;12.20;;;8.65;;
47523;SDS011;33253;42.144;25.884;2023-02-21T07:58:00;14.38;;;8.55;;
47523;SDS011;33253;42.144;25.884;2023-02-21T08:00:26;13.65;;;8.35;;
47523;SDS011;33253;42.144;25.884;2023-02-21T08:02:51;12.38;;;7.90;;
47523;SDS011;33253;42.144;25.884;2023-02-21T08:05:17;11.15;;;6.95;;
47523;SDS011;33253;42.144;25.884;2023-02-21T08:07:44;9.98;;;6.68;;
47523;SDS011;33253;42.144;25.884;2023-02-21T08:10:10;14.68;;;6.55;;
47523;SDS011;33253;42.144;25.884;2023-02-21T08:12:36;9.68;;;6.20;;
47523;SDS011;33253;42.144;25.884;2023-02-21T08:15:01;10.57;;;6.60;;
47523;SDS011;33253;42.144;25.884;2023-02-21T08:17:29;62.33;;;42.83;;
47523;SDS011;33253;42.144;25.884;2023-02-21T08:19:54;15.50;;;8.30;;
47523;SDS011;33253;42.144;25.884;2023-02-21T08:22:19;8.02;;;4.88;;
47523;SDS011;33253;42.144;25.884;2023-02-21T08:24:47;10.48;;;4.20;;
47523;SDS011;33253;42.144;25.884;2023-02-21T08:27:14;7.37;;;4.00;;
47523;SDS011;33253;42.144;25.884;2023-02-21T08:29:39;8.95;;;4.40;;
47523;SDS011;33253;42.144;25.884;2023-02-21T08:32:05;5.45;;;2.70;;
47523;SDS011;33253;42.144;25.884;2023-02-21T08:34:30;9.57;;;3.10;;
47523;SDS011;33253;42.144;25.884;2023-02-21T08:36:56;5.75;;;3.55;;
47523;SDS011;33253;42.144;25.884;2023-02-21T08:39:21;8.55;;;4.00;;
47523;SDS011;33253;42.144;25.884;2023-02-21T08:41:47;9.90;;;2.90;;
47523;SDS011;33253;42.144;25.884;2023-02-21T08:44:14;6.22;;;2.65;;
47523;SDS011;33253;42.144;25.884;2023-02-21T08:46:41;7.82;;;2.80;;
47523;SDS011;33253;42.144;25.884;2023-02-21T08:49:07;11.07;;;3.45;;
47523;SDS011;33253;42.144;25.884;2023-02-21T08:51:33;9.60;;;2.53;;
47523;SDS011;33253;42.144;25.884;2023-02-21T08:53:59;4.63;;;1.42;;
47523;SDS011;33253;42.144;25.884;2023-02-21T08:56:24;8.10;;;5.18;;
47523;SDS011;33253;42.144;25.884;2023-02-21T08:58:51;6.80;;;2.70;;
47523;SDS011;33253;42.144;25.884;2023-02-21T09:01:36;6.60;;;2.00;;
47523;SDS011;33253;42.144;25.884;2023-02-21T09:04:02;8.82;;;3.22;;
47523;SDS011;33253;42.144;25.884;2023-02-21T09:06:28;1.80;;;1.25;;
47523;SDS011;33253;42.144;25.884;2023-02-21T09:08:54;3.33;;;1.77;;
47523;SDS011;33253;42.144;25.884;2023-02-21T09:11:20;7.28;;;2.22;;
47523;SDS011;33253;42.144;25.884;2023-02-21T09:13:45;5.30;;;2.45;;
47523;SDS011;33253;42.144;25.884;2023-02-21T09:16:11;8.90;;;3.47;;
47523;SDS011;33253;42.144;25.884;2023-02-21T09:18:36;5.57;;;2.08;;
47523;SDS011;33253;42.144;25.884;2023-02-21T09:21:02;4.10;;;1.42;;
47523;SDS011;33253;42.144;25.884;2023-02-21T09:23:28;6.40;;;2.45;;
47523;SDS011;33253;42.144;25.884;2023-02-21T09:25:54;6.32;;;1.85;;
47523;SDS011;33253;42.144;25.884;2023-02-21T09:28:21;5.40;;;2.08;;
47523;SDS011;33253;42.144;25.884;2023-02-21T09:30:47;6.60;;;1.73;;
47523;SDS011;33253;42.144;25.884;2023-02-21T09:33:13;13.45;;;1.90;;
47523;SDS011;33253;42.144;25.884;2023-02-21T09:35:39;6.47;;;1.90;;
47523;SDS011;33253;42.144;25.884;2023-02-21T09:38:05;7.38;;;2.20;;
47523;SDS011;33253;42.144;25.884;2023-02-21T09:40:39;4.57;;;1.92;;
47523;SDS011;33253;42.144;25.884;2023-02-21T09:43:15;6.75;;;2.03;;
47523;SDS011;33253;42.144;25.884;2023-02-21T09:45:47;11.83;;;2.10;;
47523;SDS011;33253;42.144;25.884;2023-02-21T09:48:17;6.40;;;2.03;;
47523;SDS011;33253;42.144;25.884;2023-02-21T09:50:47;2.95;;;1.50;;
47523;SDS011;33253;42.144;25.884;2023-02-21T09:53:15;4.13;;;1.52;;
47523;SDS011;33253;42.144;25.884;2023-02-21T09:55:45;2.22;;;1.33;;
47523;SDS011;33253;42.144;25.884;2023-02-21T09:58:16;2.20;;;1.38;;
47523;SDS011;33253;42.144;25.884;2023-02-21T10:00:43;3.25;;;1.92;;
47523;SDS011;33253;42.144;25.884;2023-02-21T10:13:50;4.90;;;2.30;;
47523;SDS011;33253;42.144;25.884;2023-02-21T10:16:28;4.13;;;2.25;;
47523;SDS011;33253;42.144;25.884;2023-02-21T10:19:13;5.13;;;3.33;;
47523;SDS011;33253;42.144;25.884;2023-02-21T10:21:43;4.95;;;2.15;;
47523;SDS011;33253;42.144;25.884;2023-02-21T10:24:12;4.88;;;2.40;;
47523;SDS011;33253;42.144;25.884;2023-02-21T10:26:39;5.47;;;2.85;;
47523;SDS011;33253;42.144;25.884;2023-02-21T10:29:22;7.65;;;4.30;;
47523;SDS011;33253;42.144;25.884;2023-02-21T10:31:51;11.18;;;4.30;;
47523;SDS011;33253;42.144;25.884;2023-02-21T10:34:23;6.18;;;3.80;;
47523;SDS011;33253;42.144;25.884;2023-02-21T10:39:18;2.67;;;1.85;;
47523;SDS011;33253;42.144;25.884;2023-02-21T10:41:46;3.37;;;2.13;;
47523;SDS011;33253;42.144;25.884;2023-02-21T10:44:19;3.65;;;2.20;;
47523;SDS011;33253;42.144;25.884;2023-02-21T10:47:03;7.47;;;2.75;;
47523;SDS011;33253;42.144;25.884;2023-02-21T10:49:40;4.97;;;2.80;;
47523;SDS011;33253;42.144;25.884;2023-02-21T10:54:40;4.25;;;2.15;;
47523;SDS011;33253;42.144;25.884;2023-02-21T10:57:07;8.90;;;2.20;;
47523;SDS011;33253;42.144;25.884;2023-02-21T10:59:36;4.10;;;1.58;;
47523;SDS011;33253;42.144;25.884;2023-02-21T11:02:27;3.05;;;1.77;;
47523;SDS011;33253;42.144;25.884;2023-02-21T11:05:05;4.22;;;2.17;;
47523;SDS011;33253;42.144;25.884;2023-02-21T11:07:37;4.05;;;2.17;;
47523;SDS011;33253;42.144;25.884;2023-02-21T11:10:16;3.60;;;1.70;;
47523;SDS011;33253;42.144;25.884;2023-02-21T11:15:30;3.05;;;1.30;;
47523;SDS011;33253;42.144;25.884;2023-02-21T11:20:49;4.03;;;1.50;;
47523;SDS011;33253;42.144;25.884;2023-02-21T11:23:20;4.50;;;1.67;;
47523;SDS011;33253;42.144;25.884;2023-02-21T11:26:08;2.03;;;1.40;;
47523;SDS011;33253;42.144;25.884;2023-02-21T11:28:39;2.72;;;1.35;;
47523;SDS011;33253;42.144;25.884;2023-02-21T11:33:54;2.50;;;1.70;;
47523;SDS011;33253;42.144;25.884;2023-02-21T11:36:26;2.85;;;1.70;;
47523;SDS011;33253;42.144;25.884;2023-02-21T11:41:44;4.60;;;1.42;;
47523;SDS011;33253;42.144;25.884;2023-02-21T11:44:28;2.17;;;1.40;;
47523;SDS011;33253;42.144;25.884;2023-02-21T11:50:07;2.28;;;1.20;;
47523;SDS011;33253;42.144;25.884;2023-02-21T11:55:11;4.13;;;1.10;;
47523;SDS011;33253;42.144;25.884;2023-02-21T12:03:06;3.67;;;1.35;;
47523;SDS011;33253;42.144;25.884;2023-02-21T12:08:39;1.30;;;1.00;;
47523;SDS011;33253;42.144;25.884;2023-02-21T12:27:42;2.55;;;1.20;;
47523;SDS011;33253;42.144;25.884;2023-02-21T12:33:00;1.27;;;1.00;;
47523;SDS011;33253;42.144;25.884;2023-02-21T12:40:59;3.88;;;1.73;;
47523;SDS011;33253;42.144;25.884;2023-02-21T12:49:02;5.35;;;1.10;;
47523;SDS011;33253;42.144;25.884;2023-02-21T12:51:38;4.10;;;1.45;;
47523;SDS011;33253;42.144;25.884;2023-02-21T12:54:13;2.75;;;1.20;;
47523;SDS011;33253;42.144;25.884;2023-02-21T12:56:46;1.70;;;1.10;;
47523;SDS011;33253;42.144;25.884;2023-02-21T12:59:24;2.80;;;1.52;;
47523;SDS011;33253;42.144;25.884;2023-02-21T13:04:43;2.78;;;1.40;;
47523;SDS011;33253;42.144;25.884;2023-02-21T13:07:13;5.18;;;1.38;;
47523;SDS011;33253;42.144;25.884;2023-02-21T13:09:54;3.42;;;1.35;;
47523;SDS011;33253;42.144;25.884;2023-02-21T13:12:33;4.13;;;1.33;;
47523;SDS011;33253;42.144;25.884;2023-02-21T13:15:23;1.75;;;1.08;;
47523;SDS011;33253;42.144;25.884;2023-02-21T13:17:54;2.60;;;1.55;;
47523;SDS011;33253;42.144;25.884;2023-02-21T13:20:26;3.88;;;1.30;;
47523;SDS011;33253;42.144;25.884;2023-02-21T13:26:08;2.92;;;1.30;;
47523;SDS011;33253;42.144;25.884;2023-02-21T13:28:55;3.25;;;1.30;;
47523;SDS011;33253;42.144;25.884;2023-02-21T13:31:26;2.00;;;1.27;;
47523;SDS011;33253;42.144;25.884;2023-02-21T13:34:02;5.45;;;1.50;;
47523;SDS011;33253;42.144;25.884;2023-02-21T13:42:00;2.58;;;1.60;;
47523;SDS011;33253;42.144;25.884;2023-02-21T13:44:33;4.15;;;1.55;;
47523;SDS011;33253;42.144;25.884;2023-02-21T13:57:41;1.75;;;1.17;;
47523;SDS011;33253;42.144;25.884;2023-02-21T14:02:57;1.23;;;1.00;;
47523;SDS011;33253;42.144;25.884;2023-02-21T14:10:55;2.00;;;1.17;;
47523;SDS011;33253;42.144;25.884;2023-02-21T14:13:55;3.58;;;1.30;;
47523;SDS011;33253;42.144;25.884;2023-02-21T14:16:46;3.30;;;1.52;;
47523;SDS011;33253;42.144;25.884;2023-02-21T14:19:22;2.38;;;1.15;;
47523;SDS011;33253;42.144;25.884;2023-02-21T14:21:55;3.05;;;1.60;;
47523;SDS011;33253;42.144;25.884;2023-02-21T14:24:33;4.25;;;1.45;;
47523;SDS011;33253;42.144;25.884;2023-02-21T14:27:29;2.65;;;1.20;;
47523;SDS011;33253;42.144;25.884;2023-02-21T14:30:14;2.25;;;1.25;;
47523;SDS011;33253;42.144;25.884;2023-02-21T14:35:56;3.93;;;1.43;;
47523;SDS011;33253;42.144;25.884;2023-02-21T14:38:34;5.07;;;1.67;;
47523;SDS011;33253;42.144;25.884;2023-02-21T14:46:43;9.25;;;3.20;;
47523;SDS011;33253;42.144;25.884;2023-02-21T14:49:33;137.73;;;67.15;;
47523;SDS011;33253;42.144;25.884;2023-02-21T14:55:16;9.00;;;8.10;;
47523;SDS011;33253;42.144;25.884;2023-02-21T15:00:52;2.55;;;1.52;;
47523;SDS011;33253;42.144;25.884;2023-02-21T15:03:24;5.28;;;1.42;;
47523;SDS011;33253;42.144;25.884;2023-02-21T15:05:59;4.45;;;1.55;;
47523;SDS011;33253;42.144;25.884;2023-02-21T15:08:53;4.93;;;1.45;;
47523;SDS011;33253;42.144;25.884;2023-02-21T15:14:13;3.95;;;1.92;;
47523;SDS011;33253;42.144;25.884;2023-02-21T15:17:10;7.65;;;2.20;;
47523;SDS011;33253;42.144;25.884;2023-02-21T15:19:40;4.38;;;1.98;;
47523;SDS011;33253;42.144;25.884;2023-02-21T15:22:10;5.10;;;2.50;;
47523;SDS011;33253;42.144;25.884;2023-02-21T15:24:39;5.20;;;2.58;;
47523;SDS011;33253;42.144;25.884;2023-02-21T15:27:10;6.25;;;2.50;;
47523;SDS011;33253;42.144;25.884;2023-02-21T15:29:36;5.70;;;2.42;;
47523;SDS011;33253;42.144;25.884;2023-02-21T15:32:04;7.32;;;2.70;;
47523;SDS011;33253;42.144;25.884;2023-02-21T15:37:27;6.72;;;2.60;;
47523;SDS011;33253;42.144;25.884;2023-02-21T15:39:55;7.45;;;2.70;;
47523;SDS011;33253;42.144;25.884;2023-02-21T15:42:36;3.92;;;2.42;;
47523;SDS011;33253;42.144;25.884;2023-02-21T15:45:05;7.30;;;2.13;;
47523;SDS011;33253;42.144;25.884;2023-02-21T15:47:35;7.68;;;2.22;;
47523;SDS011;33253;42.144;25.884;2023-02-21T15:52:36;6.93;;;2.65;;
47523;SDS011;33253;42.144;25.884;2023-02-21T16:02:51;10.77;;;4.20;;
47523;SDS011;33253;42.144;25.884;2023-02-21T16:05:35;41.58;;;21.75;;
47523;SDS011;33253;42.144;25.884;2023-02-21T16:08:01;22.27;;;12.63;;
47523;SDS011;33253;42.144;25.884;2023-02-21T16:10:28;10.32;;;7.32;;
47523;SDS011;33253;42.144;25.884;2023-02-21T16:12:59;9.07;;;4.90;;
47523;SDS011;33253;42.144;25.884;2023-02-21T16:15:27;10.68;;;6.32;;
47523;SDS011;33253;42.144;25.884;2023-02-21T16:17:56;9.68;;;4.20;;
47523;SDS011;33253;42.144;25.884;2023-02-21T16:20:26;8.60;;;3.53;;
47523;SDS011;33253;42.144;25.884;2023-02-21T16:26:17;11.73;;;4.22;;
47523;SDS011;33253;42.144;25.884;2023-02-21T16:28:46;7.97;;;3.05;;
47523;SDS011;33253;42.144;25.884;2023-02-21T16:31:15;8.93;;;2.97;;
47523;SDS011;33253;42.144;25.884;2023-02-21T16:33:48;8.18;;;2.90;;
47523;SDS011;33253;42.144;25.884;2023-02-21T16:36:33;10.48;;;2.90;;
47523;SDS011;33253;42.144;25.884;2023-02-21T16:38:59;5.85;;;2.17;;
47523;SDS011;33253;42.144;25.884;2023-02-21T16:41:24;6.18;;;2.78;;
47523;SDS011;33253;42.144;25.884;2023-02-21T16:43:50;4.90;;;2.63;;
47523;SDS011;33253;42.144;25.884;2023-02-21T16:46:22;6.53;;;2.70;;
47523;SDS011;33253;42.144;25.884;2023-02-21T16:48:51;8.48;;;3.55;;
47523;SDS011;33253;42.144;25.884;2023-02-21T16:51:17;9.65;;;3.53;;
47523;SDS011;33253;42.144;25.884;2023-02-21T16:53:42;16.08;;;8.95;;
47523;SDS011;33253;42.144;25.884;2023-02-21T16:56:10;10.70;;;5.28;;
47523;SDS011;33253;42.144;25.884;2023-02-21T16:58:38;9.80;;;4.00;;
47523;SDS011;33253;42.144;25.884;2023-02-21T17:01:07;12.52;;;4.47;;
47523;SDS011;33253;42.144;25.884;2023-02-21T17:03:37;17.92;;;6.57;;
47523;SDS011;33253;42.144;25.884;2023-02-21T17:06:04;25.65;;;8.52;;
47523;SDS011;33253;42.144;25.884;2023-02-21T17:08:30;19.83;;;7.90;;
47523;SDS011;33253;42.144;25.884;2023-02-21T17:10:56;11.07;;;4.63;;
47523;SDS011;33253;42.144;25.884;2023-02-21T17:13:22;14.10;;;4.63;;
47523;SDS011;33253;42.144;25.884;2023-02-21T17:15:50;9.90;;;5.00;;
47523;SDS011;33253;42.144;25.884;2023-02-21T17:18:16;10.90;;;4.50;;
47523;SDS011;33253;42.144;25.884;2023-02-21T17:20:41;8.45;;;4.28;;
47523;SDS011;33253;42.144;25.884;2023-02-21T17:23:06;14.20;;;4.28;;
47523;SDS011;33253;42.144;25.884;2023-02-21T17:25:32;11.90;;;4.90;;
47523;SDS011;33253;42.144;25.884;2023-02-21T17:28:00;14.82;;;6.20;;
47523;SDS011;33253;42.144;25.884;2023-02-21T17:30:25;9.63;;;3.67;;
47523;SDS011;33253;42.144;25.884;2023-02-21T17:32:51;9.63;;;3.00;;
47523;SDS011;33253;42.144;25.884;2023-02-21T17:35:17;11.77;;;5.35;;